createdAt,value
2016-07-15T00:00:18.712Z,92.13
2016-07-15T00:01:18.708Z,92.98
2016-07-15T00:02:18.701Z,93.08
2016-07-15T00:03:18.703Z,93.55
2016-07-15T00:04:18.694Z,94.03
2016-07-15T00:05:18.681Z,92.69
2016-07-15T00:06:18.681Z,93.55
2016-07-15T00:07:18.662Z,93.55
2016-07-15T00:08:18.669Z,93.84
2016-07-15T00:09:18.669Z,93.84
2016-07-15T00:10:18.645Z,94.22
2016-07-15T00:11:18.655Z,93.17
2016-07-15T00:12:18.631Z,94.03
2016-07-15T00:13:19.389Z,94.6
2016-07-15T00:14:18.618Z,94.13
2016-07-15T00:15:18.614Z,93.55
2016-07-15T00:16:18.606Z,93.55
2016-07-15T00:17:18.599Z,92.98
2016-07-15T00:18:18.599Z,93.17
2016-07-15T00:19:18.586Z,93.93
2016-07-15T00:20:18.581Z,93.93
2016-07-15T00:21:18.570Z,93.74
2016-07-15T00:22:18.565Z,93.93
2016-07-15T00:23:18.569Z,93.55
2016-07-15T00:24:18.547Z,93.37
2016-07-15T00:25:18.558Z,93.84
2016-07-15T00:26:18.549Z,93.84
2016-07-15T00:27:18.538Z,94.51
2016-07-15T00:28:18.526Z,94.7
2016-07-15T00:29:18.523Z,95.36
2016-07-15T00:30:18.517Z,94.79
2016-07-15T00:31:18.506Z,94.51
2016-07-15T00:32:18.497Z,95.27
2016-07-15T00:33:18.507Z,95.46
2016-07-15T00:34:18.514Z,95.84
2016-07-15T00:35:18.484Z,95.65
2016-07-15T00:36:18.477Z,95.94
2016-07-15T00:37:18.463Z,96.03
2016-07-15T00:38:18.454Z,95.94
2016-07-15T00:39:18.452Z,96.03
2016-07-15T00:40:18.450Z,96.6
2016-07-15T00:41:18.433Z,96.41
2016-07-15T00:42:18.430Z,96.8
2016-07-15T00:43:18.416Z,97.75
2016-07-15T00:44:18.470Z,97.75
2016-07-15T00:45:18.416Z,98.22
2016-07-15T00:46:18.399Z,98.32
2016-07-15T00:47:19.175Z,98.51
2016-07-15T00:48:18.378Z,98.32
2016-07-15T00:49:18.384Z,98.32
2016-07-15T00:50:18.377Z,98.6
2016-07-15T00:51:18.365Z,99.32
2016-07-15T00:52:18.364Z,99.13
2016-07-15T00:53:18.356Z,99.41
2016-07-15T00:54:18.356Z,99.51
2016-07-15T00:55:18.337Z,99.65
2016-07-15T00:56:18.339Z,99.79
2016-07-15T00:57:18.323Z,99.84
2016-07-15T00:58:18.314Z,99.79
2016-07-15T00:59:18.319Z,99.89
2016-07-15T01:00:18.297Z,99.84
2016-07-15T01:01:18.309Z,99.79
2016-07-15T01:02:18.303Z,99.41
2016-07-15T01:03:18.293Z,99.84
2016-07-15T01:04:18.277Z,99.99
2016-07-15T01:05:19.083Z,99.51
2016-07-15T01:06:18.264Z,99.84
2016-07-15T01:07:18.258Z,99.84
2016-07-15T01:08:18.249Z,99.89
2016-07-15T01:09:18.247Z,99.79
2016-07-15T01:10:18.233Z,99.41
2016-07-15T01:11:18.224Z,99.37
2016-07-15T01:12:18.206Z,99.79
2016-07-15T01:13:18.215Z,99.51
2016-07-15T01:14:18.196Z,99.79
2016-07-15T01:15:18.196Z,99.69
2016-07-15T01:16:18.197Z,99.94
2016-07-15T01:17:18.185Z,99.94
2016-07-15T01:18:18.179Z,99.79
2016-07-15T01:19:18.169Z,99.99
2016-07-15T01:20:18.162Z,99.79
2016-07-15T01:21:18.151Z,99.65
2016-07-15T01:22:18.156Z,99.99
2016-07-15T01:23:18.141Z,99.99
2016-07-15T01:24:18.127Z,99.79
2016-07-15T01:25:18.126Z,99.89
2016-07-15T01:26:18.110Z,99.94
2016-07-15T01:27:18.118Z,99.99
2016-07-15T01:28:18.105Z,99.99
2016-07-15T01:29:18.095Z,99.98
2016-07-15T01:30:18.098Z,99.99
2016-07-15T01:31:18.077Z,99.99
2016-07-15T01:32:18.068Z,99.99
2016-07-15T01:33:18.061Z,99.99
2016-07-15T01:34:18.057Z,99.99
2016-07-15T01:35:18.055Z,99.99
2016-07-15T01:36:18.046Z,99.99
2016-07-15T01:37:18.043Z,99.99
2016-07-15T01:38:18.053Z,99.99
2016-07-15T01:39:18.015Z,99.99
2016-07-15T01:40:18.013Z,99.99
2016-07-15T01:41:18.008Z,99.99
2016-07-15T01:42:17.998Z,99.99
2016-07-15T01:43:17.993Z,99.99
2016-07-15T01:44:18.048Z,99.99
2016-07-15T01:45:17.980Z,99.99
2016-07-15T01:46:17.963Z,99.99
2016-07-15T01:47:17.955Z,99.99
2016-07-15T01:48:17.970Z,99.99
2016-07-15T01:49:17.952Z,99.99
2016-07-15T01:50:17.956Z,99.99
2016-07-15T01:51:17.953Z,99.99
2016-07-15T01:52:17.928Z,99.99
2016-07-15T01:53:17.925Z,99.99
2016-07-15T01:54:18.308Z,99.99
2016-07-15T01:55:18.024Z,99.99
2016-07-15T01:56:17.901Z,99.99
2016-07-15T01:57:17.891Z,99.99
2016-07-15T01:58:17.885Z,99.99
2016-07-15T01:59:17.885Z,99.99
2016-07-15T02:00:18.214Z,99.99
2016-07-15T02:01:17.860Z,99.99
2016-07-15T02:02:17.857Z,99.99
2016-07-15T02:03:17.852Z,99.99
2016-07-15T02:04:17.847Z,99.99
2016-07-15T02:05:17.844Z,99.99
2016-07-15T02:06:17.830Z,99.99
2016-07-15T02:07:17.810Z,99.99
2016-07-15T02:08:18.069Z,99.99
2016-07-15T02:09:17.799Z,99.99
2016-07-15T02:10:17.795Z,99.99
2016-07-15T02:11:17.792Z,99.99
2016-07-15T02:12:17.792Z,99.99
2016-07-15T02:13:17.779Z,99.99
2016-07-15T02:14:17.775Z,99.99
2016-07-15T02:15:17.750Z,99.99
2016-07-15T02:16:17.754Z,99.99
2016-07-15T02:17:17.749Z,99.99
2016-07-15T02:18:17.751Z,99.99
2016-07-15T02:19:17.725Z,99.99
2016-07-15T02:20:17.737Z,99.99
2016-07-15T02:21:17.731Z,99.99
2016-07-15T02:22:17.703Z,99.99
2016-07-15T02:23:17.702Z,99.99
2016-07-15T02:24:17.706Z,99.99
2016-07-15T02:25:17.684Z,99.99
2016-07-15T02:26:17.688Z,99.99
2016-07-15T02:27:17.670Z,99.99
2016-07-15T02:28:17.679Z,99.99
2016-07-15T02:29:17.654Z,99.99
2016-07-15T02:30:17.647Z,99.99
2016-07-15T02:31:17.647Z,99.99
2016-07-15T02:32:17.637Z,99.99
2016-07-15T02:33:17.630Z,99.99
2016-07-15T02:34:17.625Z,99.99
2016-07-15T02:35:17.617Z,99.99
2016-07-15T02:36:17.610Z,99.99
2016-07-15T02:37:18.317Z,99.99
2016-07-15T02:38:17.604Z,99.99
2016-07-15T02:39:17.592Z,99.99
2016-07-15T02:40:17.589Z,99.99
2016-07-15T02:41:17.564Z,99.99
2016-07-15T02:42:17.561Z,99.99
2016-07-15T02:43:17.559Z,99.99
2016-07-15T02:44:17.553Z,99.99
2016-07-15T02:45:17.555Z,99.99
2016-07-15T02:46:17.542Z,99.99
2016-07-15T02:47:17.534Z,99.99
2016-07-15T02:48:17.537Z,99.99
2016-07-15T02:49:17.513Z,99.99
2016-07-15T02:50:17.509Z,99.99
2016-07-15T02:51:17.495Z,99.99
2016-07-15T02:52:17.499Z,99.99
2016-07-15T02:53:17.481Z,99.99
2016-07-15T02:54:17.484Z,99.99
2016-07-15T02:55:17.464Z,99.99
2016-07-15T02:56:17.469Z,99.99
2016-07-15T02:57:17.464Z,99.99
2016-07-15T02:58:17.452Z,99.99
2016-07-15T02:59:17.449Z,99.99
2016-07-15T03:00:17.448Z,99.99
2016-07-15T03:01:17.429Z,99.99
2016-07-15T03:02:17.423Z,99.99
2016-07-15T03:03:18.124Z,99.99
2016-07-15T03:04:17.423Z,99.99
2016-07-15T03:05:17.401Z,99.99
2016-07-15T03:06:17.421Z,99.99
2016-07-15T03:07:18.110Z,99.99
2016-07-15T03:08:17.393Z,99.99
2016-07-15T03:09:17.368Z,99.99
2016-07-15T03:10:17.377Z,99.99
2016-07-15T03:11:17.366Z,99.99
2016-07-15T03:12:17.365Z,99.99
2016-07-15T03:13:17.337Z,99.99
2016-07-15T03:14:17.348Z,99.99
2016-07-15T03:15:17.333Z,99.99
2016-07-15T03:16:17.329Z,99.99
2016-07-15T03:17:17.322Z,99.99
2016-07-15T03:18:17.316Z,99.99
2016-07-15T03:19:17.299Z,99.99
2016-07-15T03:20:17.996Z,99.99
2016-07-15T03:21:17.289Z,99.99
2016-07-15T03:22:17.280Z,99.99
2016-07-15T03:23:17.263Z,99.99
2016-07-15T03:24:17.260Z,99.99
2016-07-15T03:25:17.255Z,99.99
2016-07-15T03:26:17.248Z,99.99
2016-07-15T03:27:17.242Z,99.99
2016-07-15T03:28:17.235Z,99.99
2016-07-15T03:29:17.233Z,99.99
2016-07-15T03:30:17.228Z,99.99
2016-07-15T03:31:17.204Z,99.99
2016-07-15T03:32:17.203Z,99.99
2016-07-15T03:33:17.203Z,99.99
2016-07-15T03:34:17.191Z,99.99
2016-07-15T03:35:17.176Z,99.99
2016-07-15T03:36:17.191Z,99.99
2016-07-15T03:37:17.167Z,99.99
2016-07-15T03:38:17.167Z,99.99
2016-07-15T03:39:17.153Z,99.99
2016-07-15T03:40:17.160Z,99.99
2016-07-15T03:41:17.850Z,99.99
2016-07-15T03:42:17.133Z,99.99
2016-07-15T03:43:17.142Z,99.99
2016-07-15T03:44:17.152Z,99.99
2016-07-15T03:45:17.116Z,99.99
2016-07-15T03:46:17.113Z,99.99
2016-07-15T03:47:17.096Z,99.99
2016-07-15T03:48:17.093Z,99.99
2016-07-15T03:49:17.089Z,99.99
2016-07-15T03:50:17.080Z,99.99
2016-07-15T03:51:17.090Z,99.99
2016-07-15T03:52:17.100Z,99.99
2016-07-15T03:53:17.105Z,99.99
2016-07-15T03:54:17.115Z,99.99
2016-07-15T03:55:17.123Z,99.99
2016-07-15T03:56:17.129Z,99.99
2016-07-15T03:57:17.043Z,99.99
2016-07-15T03:58:17.044Z,99.99
2016-07-15T03:59:17.054Z,99.99
2016-07-15T04:00:17.047Z,99.99
2016-07-15T04:01:17.061Z,99.99
2016-07-15T04:02:17.066Z,99.99
2016-07-15T04:03:17.074Z,99.99
2016-07-15T04:04:17.025Z,99.99
2016-07-15T04:05:17.034Z,99.99
2016-07-15T04:06:17.037Z,99.99
2016-07-15T04:07:17.047Z,99.99
2016-07-15T04:08:17.049Z,99.99
2016-07-15T04:09:17.692Z,99.84
2016-07-15T04:10:17.023Z,99.65
2016-07-15T04:11:17.030Z,99.75
2016-07-15T04:12:16.978Z,99.27
2016-07-15T04:13:16.985Z,99.37
2016-07-15T04:14:16.998Z,99.46
2016-07-15T04:15:17.002Z,99.55
2016-07-15T04:16:17.009Z,99.55
2016-07-15T04:17:17.013Z,99.99
2016-07-15T04:18:17.019Z,99.99
2016-07-15T04:19:17.035Z,99.94
2016-07-15T04:20:17.037Z,99.27
2016-07-15T04:21:17.046Z,99.27
2016-07-15T04:22:16.950Z,99.08
2016-07-15T04:23:16.963Z,99.75
2016-07-15T04:24:16.968Z,99.08
2016-07-15T04:25:16.972Z,99.08
2016-07-15T04:26:16.984Z,99.37
2016-07-15T04:27:16.989Z,99.55
2016-07-15T04:28:17.523Z,99.65
2016-07-15T04:29:17.004Z,99.99
2016-07-15T04:30:16.868Z,99.99
2016-07-15T04:31:16.880Z,99.99
2016-07-15T04:32:16.885Z,99.99
2016-07-15T04:33:16.892Z,99.84
2016-07-15T04:34:16.934Z,99.18
2016-07-15T04:35:16.946Z,98.13
2016-07-15T04:36:16.955Z,97.65
2016-07-15T04:37:16.953Z,98.22
2016-07-15T04:38:16.821Z,98.41
2016-07-15T04:39:16.830Z,98.7
2016-07-15T04:40:16.839Z,98.03
2016-07-15T04:41:16.855Z,98.6
2016-07-15T04:42:16.857Z,99.27
2016-07-15T04:43:16.856Z,99.27
2016-07-15T04:44:16.866Z,98.03
2016-07-15T04:45:16.877Z,98.6
2016-07-15T04:46:16.782Z,98.13
2016-07-15T04:47:16.785Z,98.6
2016-07-15T04:48:16.791Z,98.41
2016-07-15T04:49:16.799Z,98.6
2016-07-15T04:50:16.809Z,97.84
2016-07-15T04:51:17.379Z,97.46
2016-07-15T04:52:16.825Z,98.03
2016-07-15T04:53:16.829Z,98.03
2016-07-15T04:54:16.837Z,98.7
2016-07-15T04:55:16.843Z,98.7
2016-07-15T04:56:17.324Z,98.89
2016-07-15T04:57:16.801Z,99.37
2016-07-15T04:58:16.673Z,98.22
2016-07-15T04:59:16.777Z,97.84
2016-07-15T05:00:16.780Z,96.89
2016-07-15T05:01:16.909Z,97.46
2016-07-15T05:02:16.767Z,98.32
2016-07-15T05:03:16.646Z,97.94
2016-07-15T05:04:16.626Z,98.22
2016-07-15T05:05:16.628Z,97.56
2016-07-15T05:06:16.614Z,96.51
2016-07-15T05:07:16.615Z,97.17
2016-07-15T05:08:16.611Z,97.75
2016-07-15T05:09:16.631Z,97.36
2016-07-15T05:10:16.618Z,96.12
2016-07-15T05:11:16.607Z,96.41
2016-07-15T05:12:16.609Z,96.89
2016-07-15T05:13:16.625Z,97.46
2016-07-15T05:14:16.618Z,97.65
2016-07-15T05:15:16.589Z,97.56
2016-07-15T05:16:16.584Z,97.8
2016-07-15T05:17:16.586Z,97.41
2016-07-15T05:18:16.566Z,97.65
2016-07-15T05:19:16.563Z,97.61
2016-07-15T05:20:16.450Z,96.27
2016-07-15T05:21:17.157Z,96.51
2016-07-15T05:22:16.562Z,95.89
2016-07-15T05:23:16.562Z,95.03
2016-07-15T05:24:16.557Z,96.22
2016-07-15T05:25:16.422Z,95.32
2016-07-15T05:26:16.419Z,95.36
2016-07-15T05:27:16.409Z,94.03
2016-07-15T05:28:16.403Z,93.84
2016-07-15T05:29:16.402Z,95.17
2016-07-15T05:30:16.391Z,95.27
2016-07-15T05:31:16.388Z,94.51
2016-07-15T05:32:16.371Z,95.22
2016-07-15T05:33:16.364Z,94.13
2016-07-15T05:34:16.368Z,94.56
2016-07-15T05:35:16.363Z,95.41
2016-07-15T05:36:16.343Z,94.93
2016-07-15T05:37:16.346Z,93.32
2016-07-15T05:38:16.346Z,94.08
2016-07-15T05:39:16.326Z,94.08
2016-07-15T05:40:16.319Z,94.46
2016-07-15T05:41:16.320Z,93.88
2016-07-15T05:42:16.309Z,93.79
2016-07-15T05:43:16.305Z,94.74
2016-07-15T05:44:16.306Z,94.37
2016-07-15T05:45:16.291Z,93.79
2016-07-15T05:46:16.293Z,93.32
2016-07-15T05:47:16.277Z,93.6
2016-07-15T05:48:16.271Z,94.74
2016-07-15T05:49:16.257Z,92.46
2016-07-15T05:50:16.255Z,92.74
2016-07-15T05:51:16.245Z,93.6
2016-07-15T05:52:16.248Z,94.17
2016-07-15T05:53:16.239Z,94.17
2016-07-15T05:54:16.224Z,94.08
2016-07-15T05:55:16.215Z,93.88
2016-07-15T05:56:16.217Z,92.84
2016-07-15T05:57:16.206Z,92.17
2016-07-15T05:58:16.207Z,93.03
2016-07-15T05:59:16.198Z,92.36
2016-07-15T06:00:16.193Z,92.08
2016-07-15T06:01:16.188Z,90.74
2016-07-15T06:02:16.205Z,91.41
2016-07-15T06:03:16.167Z,91.79
2016-07-15T06:04:16.948Z,92.08
2016-07-15T06:05:16.164Z,92.55
2016-07-15T06:06:16.150Z,93.32
2016-07-15T06:07:16.156Z,93.22
2016-07-15T06:08:16.146Z,93.22
2016-07-15T06:09:16.128Z,93.22
2016-07-15T06:10:16.124Z,92.93
2016-07-15T06:11:16.116Z,91.79
2016-07-15T06:12:16.121Z,92.08
2016-07-15T06:13:16.108Z,93.17
2016-07-15T06:14:16.108Z,91.46
2016-07-15T06:15:16.100Z,92.12
2016-07-15T06:16:16.097Z,91.55
2016-07-15T06:17:16.082Z,91.07
2016-07-15T06:18:16.076Z,89.17
2016-07-15T06:19:16.068Z,89.83
2016-07-15T06:20:16.071Z,89.22
2016-07-15T06:21:16.049Z,89.83
2016-07-15T06:22:16.054Z,90.36
2016-07-15T06:23:16.049Z,89.79
2016-07-15T06:24:16.039Z,89.79
2016-07-15T06:25:16.031Z,89.31
2016-07-15T06:26:16.023Z,89.36
2016-07-15T06:27:16.019Z,87.79
2016-07-15T06:28:16.017Z,88.93
2016-07-15T06:29:16.005Z,89.64
2016-07-15T06:30:16.006Z,90.17
2016-07-15T06:31:15.994Z,88.4
2016-07-15T06:32:15.991Z,86.88
2016-07-15T06:33:15.982Z,88.4
2016-07-15T06:34:15.976Z,88.31
2016-07-15T06:35:15.968Z,89.07
2016-07-15T06:36:15.966Z,89.83
2016-07-15T06:37:15.957Z,90.12
2016-07-15T06:38:15.955Z,90.69
2016-07-15T06:39:15.943Z,88.4
2016-07-15T06:40:15.945Z,87.07
2016-07-15T06:41:15.933Z,85.39
2016-07-15T06:42:15.950Z,87.3
2016-07-15T06:43:15.917Z,87.78
2016-07-15T06:44:15.915Z,87.87
2016-07-15T06:45:15.905Z,88.26
2016-07-15T06:46:15.912Z,88.92
2016-07-15T06:47:15.907Z,84.82
2016-07-15T06:48:15.898Z,84.82
2016-07-15T06:49:15.879Z,85.87
2016-07-15T06:50:15.879Z,85.87
2016-07-15T06:51:15.875Z,85.97
2016-07-15T06:52:15.875Z,87.4
2016-07-15T06:53:15.862Z,88.45
2016-07-15T06:54:15.875Z,87.87
2016-07-15T06:55:15.851Z,86.92
2016-07-15T06:56:15.844Z,87.49
2016-07-15T06:57:15.839Z,87.02
2016-07-15T06:58:15.845Z,84.63
2016-07-15T06:59:15.824Z,85.21
2016-07-15T07:00:15.834Z,85.16
2016-07-15T07:01:15.817Z,86.3
2016-07-15T07:02:15.821Z,85.83
2016-07-15T07:03:15.818Z,85.35
2016-07-15T07:04:15.806Z,86.4
2016-07-15T07:05:15.788Z,87.16
2016-07-15T07:06:15.792Z,88.12
2016-07-15T07:07:15.785Z,86.98
2016-07-15T07:08:15.778Z,88.02
2016-07-15T07:09:15.771Z,87.64
2016-07-15T07:10:15.764Z,86.78
2016-07-15T07:11:15.989Z,85.64
2016-07-15T07:12:16.532Z,86.98
2016-07-15T07:13:15.753Z,87.74
2016-07-15T07:14:15.747Z,88.12
2016-07-15T07:15:15.734Z,87.35
2016-07-15T07:16:15.748Z,87.54
2016-07-15T07:17:15.735Z,87.64
2016-07-15T07:18:15.728Z,87.07
2016-07-15T07:19:15.717Z,86.4
2016-07-15T07:20:15.902Z,87.16
2016-07-15T07:21:15.697Z,85.45
2016-07-15T07:22:15.700Z,86.21
2016-07-15T07:23:15.688Z,86.4
2016-07-15T07:24:15.708Z,86.49
2016-07-15T07:25:15.680Z,86.98
2016-07-15T07:26:15.669Z,86.21
2016-07-15T07:27:15.680Z,85.45
2016-07-15T07:28:15.662Z,86.49
2016-07-15T07:29:15.656Z,86.88
2016-07-15T07:30:15.664Z,86.88
2016-07-15T07:31:15.641Z,85.93
2016-07-15T07:32:15.642Z,86.59
2016-07-15T07:33:15.642Z,87.35
2016-07-15T07:34:15.631Z,87.45
2016-07-15T07:35:15.625Z,86.88
2016-07-15T07:36:15.613Z,87.16
2016-07-15T07:37:15.610Z,86.3
2016-07-15T07:38:15.608Z,86.98
2016-07-15T07:39:15.603Z,86.69
2016-07-15T07:40:15.598Z,87.16
2016-07-15T07:41:15.585Z,86.78
2016-07-15T07:42:15.582Z,85.73
2016-07-15T07:43:15.584Z,86.11
2016-07-15T07:44:15.580Z,88.21
2016-07-15T07:45:15.590Z,86.78
2016-07-15T07:46:15.561Z,87.16
2016-07-15T07:47:15.551Z,87.16
2016-07-15T07:48:15.552Z,86.3
2016-07-15T07:49:15.545Z,85.45
2016-07-15T07:50:15.532Z,86.21
2016-07-15T07:51:15.531Z,87.16
2016-07-15T07:52:15.525Z,87.74
2016-07-15T07:53:15.524Z,85.54
2016-07-15T07:54:15.530Z,85.93
2016-07-15T07:55:15.504Z,85.35
2016-07-15T07:56:15.709Z,86.3
2016-07-15T07:57:15.498Z,87.07
2016-07-15T07:58:15.484Z,87.16
2016-07-15T07:59:15.488Z,87.74
2016-07-15T08:00:15.470Z,88.88
2016-07-15T08:01:15.470Z,89.45
2016-07-15T08:02:15.466Z,89.74
2016-07-15T08:03:15.465Z,90.22
2016-07-15T08:04:15.460Z,89.83
2016-07-15T08:05:15.445Z,90.22
2016-07-15T08:06:15.436Z,89.74
2016-07-15T08:07:15.439Z,90.5
2016-07-15T08:08:15.423Z,90.69
2016-07-15T08:09:15.430Z,90.12
2016-07-15T08:10:15.413Z,90.5
2016-07-15T08:11:15.408Z,90.31
2016-07-15T08:12:15.405Z,89.36
2016-07-15T08:13:15.400Z,89.45
2016-07-15T08:14:15.389Z,89.54
2016-07-15T08:15:15.388Z,89.07
2016-07-15T08:16:15.383Z,88.4
2016-07-15T08:17:16.086Z,89.07
2016-07-15T08:18:15.375Z,88.78
2016-07-15T08:19:15.371Z,87.45
2016-07-15T08:20:15.355Z,87.16
2016-07-15T08:21:15.356Z,88.21
2016-07-15T08:22:15.347Z,88.4
2016-07-15T08:24:16.049Z,88.12
2016-07-15T08:25:15.328Z,88.88
2016-07-15T08:26:15.320Z,86.25
2016-07-15T08:27:15.320Z,85.77
2016-07-15T08:28:15.316Z,86.44
2016-07-15T08:29:15.302Z,85.97
2016-07-15T08:30:15.299Z,87.02
2016-07-15T08:31:15.292Z,85.97
2016-07-15T08:32:15.287Z,85.05
2016-07-15T08:33:15.287Z,85.53
2016-07-15T08:34:15.271Z,86.39
2016-07-15T08:35:15.277Z,86.77
2016-07-15T08:36:15.263Z,85.15
2016-07-15T08:37:15.261Z,84.52
2016-07-15T08:38:15.248Z,84.14
2016-07-15T08:39:15.257Z,82.42
2016-07-15T08:40:15.238Z,81.95
2016-07-15T08:41:15.236Z,79.36
2016-07-15T08:42:15.243Z,80.7
2016-07-15T08:43:15.229Z,82.81
2016-07-15T08:44:15.222Z,83.18
2016-07-15T08:45:15.223Z,83.95
2016-07-15T08:46:15.212Z,83.09
2016-07-15T08:47:15.220Z,80.99
2016-07-15T08:48:15.208Z,82.52
2016-07-15T08:49:15.200Z,83.76
2016-07-15T08:50:15.193Z,83.86
2016-07-15T08:51:15.204Z,83.09
2016-07-15T08:52:15.193Z,80.9
2016-07-15T08:53:15.187Z,82.04
2016-07-15T08:54:15.173Z,82.42
2016-07-15T08:55:15.165Z,82.86
2016-07-15T08:56:15.163Z,82.95
2016-07-15T08:57:15.157Z,82.61
2016-07-15T08:58:15.163Z,82.09
2016-07-15T08:59:15.167Z,83.05
2016-07-15T09:00:15.143Z,82.95
2016-07-15T09:01:15.134Z,83.53
2016-07-15T09:02:15.138Z,83.14
2016-07-15T09:03:15.132Z,82.86
2016-07-15T09:04:15.136Z,83.24
2016-07-15T09:05:15.119Z,83.53
2016-07-15T09:06:15.118Z,83.72
2016-07-15T09:07:15.113Z,83.34
2016-07-15T09:08:15.105Z,83.81
2016-07-15T09:09:15.102Z,84.58
2016-07-15T09:10:15.102Z,84.96
2016-07-15T09:11:15.098Z,84.48
2016-07-15T09:12:15.086Z,82.81
2016-07-15T09:13:15.090Z,82.14
2016-07-15T09:14:15.087Z,81.76
2016-07-15T09:15:15.072Z,81.37
2016-07-15T09:16:15.064Z,80.9
2016-07-15T09:17:15.061Z,81.47
2016-07-15T09:18:15.060Z,82.71
2016-07-15T09:19:15.058Z,81.76
2016-07-15T09:20:15.042Z,81.37
2016-07-15T09:21:15.041Z,82.23
2016-07-15T09:22:15.041Z,81.56
2016-07-15T09:23:15.030Z,81.47
2016-07-15T09:24:15.023Z,80.7
2016-07-15T09:25:15.030Z,80.51
2016-07-15T09:26:15.021Z,81.47
2016-07-15T09:27:15.014Z,81.37
2016-07-15T09:28:15.002Z,80.8
2016-07-15T09:29:15.011Z,81.95
2016-07-15T09:30:15.001Z,82.42
2016-07-15T09:31:15.003Z,82.81
2016-07-15T09:32:14.986Z,83
2016-07-15T09:33:14.991Z,82.81
2016-07-15T09:34:14.982Z,80.65
2016-07-15T09:35:14.974Z,81.99
2016-07-15T09:36:14.976Z,78.83
2016-07-15T09:37:14.973Z,77.69
2016-07-15T09:38:14.958Z,78.36
2016-07-15T09:39:14.965Z,78.16
2016-07-15T09:40:14.952Z,76.35
2016-07-15T09:41:14.946Z,77.21
2016-07-15T09:42:14.946Z,78.16
2016-07-15T09:43:14.947Z,79.12
2016-07-15T09:44:14.934Z,79.88
2016-07-15T09:45:14.936Z,79.85
2016-07-15T09:46:14.927Z,79.79
2016-07-15T09:47:14.920Z,80.17
2016-07-15T09:48:14.923Z,78.83
2016-07-15T09:49:14.908Z,79.6
2016-07-15T09:50:14.908Z,80.55
2016-07-15T09:51:14.906Z,78.83
2016-07-15T09:52:14.905Z,78.2
2016-07-15T09:53:14.902Z,76.86
2016-07-15T09:54:14.894Z,75.52
2016-07-15T09:55:14.894Z,76
2016-07-15T09:56:14.906Z,75.14
2016-07-15T09:57:14.885Z,76.77
2016-07-15T09:58:14.884Z,77.95
2016-07-15T09:59:14.877Z,74.61
2016-07-15T10:00:14.870Z,75.27
2016-07-15T10:01:14.867Z,76.42
2016-07-15T10:02:15.966Z,76.62
2016-07-15T10:03:14.864Z,75.37
2016-07-15T10:04:14.849Z,76.71
2016-07-15T10:05:14.860Z,76.42
2016-07-15T10:06:14.845Z,76.23
2016-07-15T10:07:14.847Z,76.56
2016-07-15T10:08:14.842Z,77.42
2016-07-15T10:09:14.843Z,75.22
2016-07-15T10:10:14.834Z,73.02
2016-07-15T10:11:14.852Z,73.17
2016-07-15T10:12:14.822Z,74.8
2016-07-15T10:13:14.833Z,74.22
2016-07-15T10:14:14.820Z,73.94
2016-07-15T10:15:14.816Z,76.42
2016-07-15T10:16:14.811Z,76.81
2016-07-15T10:17:14.826Z,75.56
2016-07-15T10:18:14.814Z,76.9
2016-07-15T10:19:14.808Z,78.05
2016-07-15T10:20:14.804Z,77.76
2016-07-15T10:21:14.793Z,77.95
2016-07-15T10:22:14.798Z,78.72
2016-07-15T10:23:14.788Z,78.91
2016-07-15T10:24:14.794Z,76.67
2016-07-15T10:25:14.784Z,76.67
2016-07-15T10:26:14.780Z,75.62
2016-07-15T10:27:14.791Z,76.1
2016-07-15T10:28:14.783Z,76.64
2016-07-15T10:29:14.762Z,78.45
2016-07-15T10:30:14.780Z,78.31
2016-07-15T10:31:14.761Z,78.74
2016-07-15T10:32:14.759Z,80.13
2016-07-15T10:33:14.931Z,80.04
2016-07-15T10:34:14.752Z,79.08
2016-07-15T10:35:14.745Z,80.13
2016-07-15T10:36:14.748Z,80.22
2016-07-15T10:37:14.748Z,81.56
2016-07-15T10:38:14.812Z,80.74
2016-07-15T10:39:14.739Z,80.74
2016-07-15T10:40:14.725Z,80.46
2016-07-15T10:41:14.711Z,80.17
2016-07-15T10:42:14.727Z,78.78
2016-07-15T10:43:14.713Z,75.91
2016-07-15T10:53:14.824Z,77.9
2016-07-15T10:54:14.674Z,76.18
2016-07-15T10:55:14.689Z,75.6
2016-07-15T10:56:14.912Z,75.85
2016-07-15T10:57:15.029Z,76.33
2016-07-15T10:58:15.179Z,76.9
2016-07-15T10:59:15.057Z,76.9
2016-07-15T11:00:15.322Z,73.08
2016-07-15T11:01:15.199Z,73.75
2016-07-15T11:02:15.334Z,74.41
2016-07-15T11:03:15.802Z,75.79
2016-07-15T11:04:15.994Z,75.6
2016-07-15T11:05:15.204Z,75.22
2016-07-15T11:06:14.896Z,76.27
2016-07-15T11:07:15.122Z,75.6
2016-07-15T11:08:15.275Z,73.4
2016-07-15T11:09:15.128Z,74.84
2016-07-15T11:10:15.153Z,74.74
2016-07-15T11:11:16.224Z,72.06
2016-07-15T11:12:15.975Z,69.67
2016-07-15T11:13:15.003Z,71.11
2016-07-15T11:14:15.975Z,71.48
2016-07-15T11:15:15.998Z,72.44
2016-07-15T11:16:15.913Z,74.26
2016-07-15T11:17:15.188Z,75.6
2016-07-15T11:18:15.346Z,75.41
2016-07-15T11:19:15.820Z,74.65
2016-07-15T11:20:16.476Z,76.04
2016-07-15T11:21:15.547Z,76.33
2016-07-15T11:22:15.778Z,76.52
2016-07-15T11:23:15.681Z,75.95
2016-07-15T11:24:15.629Z,76.62
2016-07-15T11:25:16.059Z,78.72
2016-07-15T11:26:14.933Z,76.81
2016-07-15T11:27:15.254Z,76.52
2016-07-15T11:28:14.942Z,78.72
2016-07-15T11:29:15.808Z,79.58
2016-07-15T11:30:15.037Z,80
2016-07-15T11:31:14.913Z,76.46
2016-07-15T11:32:14.952Z,78.38
2016-07-15T11:33:15.801Z,78.47
2016-07-15T11:34:15.871Z,78.28
2016-07-15T11:35:15.942Z,78.86
2016-07-15T11:36:15.725Z,78.47
2016-07-15T11:37:16.053Z,76.18
2016-07-15T11:38:15.721Z,77.8
2016-07-15T11:39:16.582Z,78.19
2016-07-15T11:40:15.232Z,77.99
2016-07-15T11:41:15.026Z,77.9
2016-07-15T11:42:15.204Z,75.56
2016-07-15T11:43:15.782Z,75.56
2016-07-15T11:44:15.708Z,76.9
2016-07-15T11:45:15.801Z,75.18
2016-07-15T11:46:15.948Z,75.09
2016-07-15T11:47:15.996Z,76.52
2016-07-15T11:48:16.028Z,78.05
2016-07-15T11:49:16.247Z,76.04
2016-07-15T11:50:15.723Z,76.52
2016-07-15T11:51:15.135Z,72.12
2016-07-15T11:52:15.643Z,73.65
2016-07-15T11:53:15.878Z,73.46
2016-07-15T11:54:15.651Z,74.36
2016-07-15T11:55:15.049Z,75.31
2016-07-15T11:56:14.770Z,75.22
2016-07-15T11:57:14.860Z,74.4
2016-07-15T11:58:15.946Z,74.58
2016-07-15T11:59:15.807Z,73.63
2016-07-15T12:00:14.917Z,69.7
2016-07-15T12:01:14.970Z,71.08
2016-07-15T12:02:14.869Z,70.41
2016-07-15T12:03:15.159Z,67.44
2016-07-15T12:04:15.627Z,68.87
2016-07-15T12:05:15.590Z,70.89
2016-07-15T12:06:15.541Z,70.89
2016-07-15T12:07:15.548Z,71.84
2016-07-15T12:08:15.629Z,71.75
2016-07-15T12:09:16.538Z,73.15
2016-07-15T12:10:15.723Z,69.7
2016-07-15T12:11:15.885Z,70.85
2016-07-15T12:12:16.043Z,71.77
2016-07-15T12:13:14.812Z,71.87
2016-07-15T12:14:14.953Z,73.59
2016-07-15T12:15:15.810Z,74.22
2016-07-15T12:16:15.679Z,75.27
2016-07-15T12:17:15.603Z,74.9
2016-07-15T12:18:15.739Z,75.37
2016-07-15T12:19:16.379Z,75.43
2016-07-15T12:20:15.097Z,77.44
2016-07-15T12:21:15.132Z,77.82
2016-07-15T12:22:15.863Z,78.11
2016-07-15T12:23:15.630Z,79.73
2016-07-15T12:24:15.731Z,80.46
2016-07-15T12:25:14.940Z,80.36
2016-07-15T12:26:14.914Z,80.65
2016-07-15T12:27:16.056Z,81.32
2016-07-15T12:28:15.483Z,79.02
2016-07-15T12:29:15.600Z,80.27
2016-07-15T12:30:15.625Z,79.12
2016-07-15T12:31:15.663Z,80.36
2016-07-15T12:32:15.671Z,78.45
2016-07-15T12:33:15.802Z,77.72
2016-07-15T12:34:16.288Z,79.12
2016-07-15T12:35:16.540Z,80.11
2016-07-15T12:36:15.621Z,80.5
2016-07-15T12:37:16.434Z,79.44
2016-07-15T12:38:14.900Z,79
2016-07-15T12:39:15.133Z,77.28
2016-07-15T12:40:15.957Z,77.19
2016-07-15T12:41:14.831Z,75.6
2016-07-15T12:42:14.769Z,75.98
2016-07-15T12:43:14.781Z,74.55
2016-07-15T12:44:14.743Z,75.64
2016-07-15T12:45:15.152Z,76.12
2016-07-15T12:46:15.102Z,75.64
2016-07-15T12:47:14.375Z,75.54
2016-07-15T12:48:14.302Z,74.68
2016-07-15T12:49:14.310Z,75.26
2016-07-15T12:50:14.325Z,74.4
2016-07-15T12:51:14.310Z,74.11
2016-07-15T12:52:14.313Z,75.54
2016-07-15T12:53:14.300Z,76.08
2016-07-15T12:54:14.296Z,76.65
2016-07-15T12:55:14.302Z,76.75
2016-07-15T12:56:14.303Z,76.4
2016-07-15T12:57:14.299Z,73.24
2016-07-15T12:58:14.278Z,74.87
2016-07-15T12:59:14.289Z,73.72
2016-07-15T13:00:14.290Z,74.01
2016-07-15T13:01:14.275Z,73.79
2016-07-15T13:02:14.279Z,74.07
2016-07-15T13:03:14.270Z,74.55
2016-07-15T13:04:14.302Z,75.27
2016-07-15T13:05:14.285Z,76.62